ADDS METAR Data INFO
IDs: Format: Raw Decoded Include TAF

Data at: 1955 UTC 15 Dec 2017

PAOO 151714Z AUTO 03033G38KT 3SM UP BR FEW120 M03/M05 A2935 RMK AO2 PK WND 03038/1708 PRESFR P0000 FZRANO
PAOO 151656Z AUTO 03034KT 3SM UP BR CLR M03/M05 A2941 RMK AO2 PK WND 02038/1622 UPB34SNB13E34 PRESFR SLP970 P0000 T10331050 FZRANO
PAOO 151556Z AUTO 03031KT 6SM HZ CLR M02/M05 A2950 RMK AO2 PK WND 03035/1551 SLP000 T10221050 FZRANO
PAOO 151456Z AUTO 03028G34KT 8SM FEW055 SCT070 M03/M05 A2946 RMK AO2 PK WND 03034/1447 SLP988 T10281050 53104 FZRANO
PAOO 151356Z AUTO 03028KT 8SM BKN047 OVC055 M03/M05 A2931 RMK AO2 PK WND 03033/1345 SLP936 T10331050 FZRANO
PAOO 151256Z AUTO 04019KT 10SM OVC047 M03/M04 A2914 RMK AO2 PK WND 04027/1225 SLP878 T10281044 FZRANO
PAOO 151156Z AUTO 05021KT 10SM BKN042 BKN050 M02/M03 A2915 RMK AO2 PK WND 04026/1147 SLP883 60000 T10171033 11017 21056 51017 FZRANO
PAOO 151056Z AUTO 05019KT 10SM FEW024 OVC046 M02/M03 A2914 RMK AO2 SLP880 T10221033 FZRANO
PAOO 150956Z AUTO 04021KT 10SM FEW018 OVC042 M02/M03 A2914 RMK AO2 SNE03 SLP877 P0000 T10221033 FZRANO
PAOO 150924Z AUTO 05020KT 10SM FEW009 SCT015 OVC044 M02/M03 A2914 RMK AO2 SNE03 P0000 FZRANO
PAOO 150856Z AUTO 05018KT 7SM -SN FEW008 BKN013 OVC040 M03/M04 A2910 RMK AO2 SNB30 SLP866 P0000 60000 T10331039 410281100 53020 FZRANO
PAOO 150848Z AUTO 05018KT 4SM -SN BR FEW009 BKN018 OVC039 M03/M04 A2912 RMK AO2 SNB30 P0000 FZRANO
PAOO 150814Z AUTO 06019KT 10SM SCT006 OVC039 M04/M04 A2910 RMK AO2 FZRANO
PAOO 150756Z AUTO 06021KT 10SM BKN006 BKN037 BKN050 M04/M06 A2908 RMK AO2 SLP859 T10441056 FZRANO
PAOO 150716Z AUTO 05017KT 10SM SCT009 BKN055 M05/M07 A2903 RMK AO2 FZRANO
PAOO 150656Z AUTO 06014KT 10SM BKN009 M05/M07 A2904 RMK AO2 SLP844 T10501067 FZRANO
PAOO 150652Z AUTO 06013KT 10SM BKN009 M05/M07 A2904 RMK AO2 FZRANO
PAOO 150642Z AUTO 06016G22KT 10SM SCT009 M05/M07 A2904 RMK AO2 FZRANO
PAOO 150556Z AUTO 06014KT 10SM SCT010 M06/M07 A2904 RMK AO2 SLP845 T10561067 11044 21061 56035 FZRANO
PAOO 150533Z AUTO 06016KT 10SM FEW011 M05/M06 A2903 RMK AO2 FZRANO
PAOO 150509Z AUTO 05019KT 10SM OVC011 M05/M06 A2905 RMK AO2 CIG 006V012 FZRANO
PAOO 150456Z AUTO 06018KT 10SM OVC008 M05/M06 A2906 RMK AO2 CIG 006V012 SLP850 T10501061 FZRANO
PAOO 150436Z AUTO 05014KT 10SM BKN008 OVC016 M05/M07 A2906 RMK AO2 CIG 007V011 FZRANO
PAOO 150404Z AUTO 05012KT 10SM BKN020 BKN037 M06/M08 A2904 RMK AO2 FZRANO
PAOO 150356Z AUTO 03008KT 10SM SCT020 BKN037 M06/M09 A2906 RMK AO2 SLP852 T10611089 FZRANO
PAOO 150256Z AUTO 09011KT 10SM BKN048 M05/M08 A2915 RMK AO2 PRESFR SLP880 T10501078 58008 FZRANO
PAOO 150156Z AUTO 02008KT 10SM OVC050 M05/M08 A2935 RMK AO2 SLP949 T10501078 FZRANO
PAOO 150056Z AUTO 03010KT 10SM OVC050 M06/M08 A2924 RMK AO2 PRESRR SLP913 T10561078 FZRANO
PAOO 142356Z AUTO 05012KT 10SM FEW038 OVC055 M05/M07 A2917 RMK AO2 PRESFR SLP889 60000 T10501072 11033 21100 58051 FZRANO
PAOO 142256Z AUTO 05007KT 10SM BKN040 M05/M08 A2921 RMK AO2 PRESFR SLP904 T10501078 FZRANO
PAOO 142156Z AUTO 36010KT 10SM FEW031 BKN046 OVC060 M04/M08 A2950 RMK AO2 SLP001 T10391078 FZRANO
PAOO 142137Z AUTO 01010KT 10SM SCT035 BKN046 OVC065 M04/M08 A2947 RMK AO2 FZRANO
PAOO 142056Z AUTO 34007KT 10SM SCT048 OVC070 M06/M08 A2932 RMK AO2 SLP940 60000 T10561078 50065 FZRANO
PAOO 142003Z AUTO 34008KT 10SM OVC070 M06/M07 A2942 RMK AO2 FZRANO
PAOO 141956Z AUTO 35009KT 10SM OVC070 M06/M07 A2944 RMK AO2 SLP980 T10561072 FZRANO
PAOO 141856Z AUTO 34004KT 9SM OVC065 M07/M08 A2925 RMK AO2 SNE56 SLP916 P0000 T10721078 FZRANO
PAOO 141756Z AUTO 31004KT 10SM -SN CLR M10/M11 A2913 RMK AO2 SNB53 SLP875 P0000 60000 T11001111 11050 21100 56011 FZRANO
PAOO 141753Z AUTO 32004KT 10SM -SN CLR M10/M11 A2915 RMK AO2 SNB53 P0000 FZRANO
PAOO 141656Z AUTO 00000KT 10SM CLR M08/M09 A2903 RMK AO2 PRESRR SLP842 T10831089 FZRANO
PAOO 141556Z AUTO 04004KT 10SM CLR M07/M08 A2916 RMK AO2 PRESRR SLP886 T10721083 FZRANO
PAOO 141456Z AUTO 00000KT 10SM CLR M08/M09 A2916 RMK AO2 PRESFR SLP887 60000 T10781089 58138 FZRANO
PAOO 141356Z AUTO 34009KT 10SM CLR M07/M09 A2945 RMK AO2 SLP983 T10721089 FZRANO
PAOO 141256Z AUTO 32007KT 10SM CLR M06/M07 A2940 RMK AO2 SNE38 SLP965 P0000 T10561072 FZRANO
PAOO 141156Z AUTO 31008KT 9SM -SN FEW012 SCT050 M05/M07 A2957 RMK AO2 SLP025 P0000 60000 T10501067 11039 21050 53100 FZRANO
PAOO 141121Z AUTO 31006KT 8SM -SN FEW018 SCT025 OVC035 M05/M06 A2941 RMK AO2 P0000 FZRANO
PAOO 141056Z AUTO 29005KT 5SM -SN BR BKN023 OVC033 M04/M06 A2929 RMK AO2 SLP930 P0000 T10441056 FZRANO
PAOO 141054Z AUTO 29005KT 4SM -SN BR BKN023 OVC033 M04/M06 A2929 RMK AO2 P0000 FZRANO
PAOO 141023Z AUTO 29008KT 7SM -SN FEW016 SCT022 OVC033 M04/M06 A2926 RMK AO2 P0000 FZRANO
PAOO 140956Z AUTO 28009KT 8SM -SN SCT016 BKN029 OVC036 M04/M06 A2928 RMK AO2 SLP925 P0000 T10391056 FZRANO
PAOO 140935Z AUTO 29011KT 8SM -SN SCT014 BKN029 OVC034 M04/M06 A2930 RMK AO2 PRESRR P0000 FZRANO
PAOO 140912Z AUTO 28009KT 4SM -SN BR BKN012 OVC020 M04/M05 A2923 RMK AO2 P0000 FZRANO
PAOO 140903Z AUTO 28009KT 2 1/2SM -SN BR BKN012 OVC020 M04/M05 A2923 RMK AO2 P0000 FZRANO
PAOO 140856Z AUTO 27009KT 3SM -SN BR BKN012 OVC020 M04/M05 A2923 RMK AO2 SLP909 P0000 60000 T10391050 410111050 51023 FZRANO
PAOO 140853Z AUTO 27008KT 4SM -SN BR SCT012 BKN019 OVC027 M04/M05 A2923 RMK AO2 P0000 410111050 FZRANO
PAOO 140838Z AUTO 25008KT 2 1/2SM -SN BR BKN012 BKN021 OVC028 M04/M05 A2922 RMK AO2 PRESRR P0000 FZRANO
PAOO 140830Z AUTO 24008KT 3SM -SN BR SCT012 BKN021 OVC028 M04/M05 A2921 RMK AO2 PRESRR P0000 FZRANO
PAOO 140815Z AUTO 25011KT 2 1/2SM -SN BR FEW010 BKN028 OVC038 M04/M05 A2919 RMK AO2 VIS 2V5 P0000 FZRANO
PAOO 140756Z AUTO 27007KT 5SM -SN BR FEW017 OVC036 M04/M06 A2919 RMK AO2 SNB18 SLP896 P0000 T10391056 FZRANO